Accueil
METAR-TAF:

METAR-TAF

Aéroports :

Paderborn-Lippstadt, Allemagne

latitude: 51-37N, longitude: 008-37E, altitude: 213 m

Observation

Le bulletin a été fait il y a 35 minutes, à 11:50 UTC
Vent 7 kt de nord-ouest, variant entre ouest et nord
Température 22°C
Humidité 46%
Pression 1019 hPa
Visibilité 10 km ou plus
Nuages épars à une hauteur de 4500 ft

METAR: EDLP 181150Z 31007KT 260V360 9999 SCT045 22/10 Q1019

Heure: 14:25 (12:25 UTC)

Prévision

Le bulletin a été fait il y a 1 heure et 25 minutes, à 11:00 UTC
Prévision valable du 18 à 12 UTC au 19 à 12 UTC
Vent 6 kt de ouest/nord-ouest
Visibilité 10 km ou plus
pas de nuages en-dessous de 1500 mètres et pas de cumulonimbus.
Evoluant progressivement
du 18 à 18 UTC au 18 à 21 UTC
Vent 3 kt de direction variable

TAF: EDLP 181100Z 1812/1912 30006KT CAVOK BECMG 1818/1821 VRB03KT

Observations et prévisions météorologiques de plus de 4000 aéroports (messages METAR et TAF).

Les stations disponibles sont représentées par des disques jaunes et rouges sur la carte.

Passer la souris dessus pour voir le nom de la station.

Cliquer dessus pour voir les observations et prévisions météorologiques.

Pour changer de carte: cliquez sur les boutons verts avec une croix noire pour zoomer, sur le bouton vert avec un tiret pour effectuer un zoom arrière, ou sur les flèches vertes pour les cartes adjacentes.


METAR-TAF: